Time;durP1;ratioP1;P1;durP2;ratioP2;P2;SDS_P1;SDS_P2;PMS_P1;PMS_P2;Temp;Humidity;BMP_temperature;BMP_pressure;BME280_temperature;BME280_humidity;BME280_pressure;Samples;Min_cycle;Max_cycle;Signal;HPM_P1;HPM_P2
2022/06/26 00:01:24;;;;;;;3.08;1.77;;;;;;;17.86;79.27;96031.72;4878289;29;20056;-77
2022/06/26 00:03:51;;;;;;;3.95;2.03;;;;;;;17.85;78.66;96030.09;4877720;29;20057;-78
2022/06/26 00:06:19;;;;;;;3.10;1.73;;;;;;;17.79;78.38;96026.88;4878685;29;20060;-76
2022/06/26 00:08:45;;;;;;;2.58;1.70;;;;;;;17.78;78.77;96030.81;4879136;29;20052;-76
2022/06/26 00:11:12;;;;;;;2.72;2.05;;;;;;;17.79;79.29;96039.84;4878480;29;20060;-76
2022/06/26 00:13:38;;;;;;;5.20;2.20;;;;;;;17.77;79.73;96045.75;4879028;29;20428;-76
2022/06/26 00:16:05;;;;;;;4.07;1.95;;;;;;;17.74;79.72;96046.47;4878287;29;20060;-77
2022/06/26 00:18:32;;;;;;;3.22;1.80;;;;;;;17.72;80.48;96033.09;4878864;29;20053;-77
2022/06/26 00:20:58;;;;;;;2.50;1.83;;;;;;;17.73;80.74;96036.63;4878796;29;20057;-77
2022/06/26 00:23:26;;;;;;;3.47;2.10;;;;;;;17.71;80.57;96030.69;4878186;29;20048;-77
2022/06/26 00:25:53;;;;;;;3.45;2.10;;;;;;;17.65;80.78;96032.97;4878704;29;20063;-76
2022/06/26 00:28:19;;;;;;;2.50;1.90;;;;;;;17.65;80.65;96026.66;4878272;29;20052;-77
2022/06/26 00:30:46;;;;;;;2.65;2.08;;;;;;;17.60;80.86;96035.25;4878791;29;20052;-76
2022/06/26 00:33:13;;;;;;;4.47;2.00;;;;;;;17.58;81.17;96032.06;4877957;29;20072;-78
2022/06/26 00:35:39;;;;;;;3.47;2.08;;;;;;;17.59;81.48;96033.63;4878687;29;20056;-76
2022/06/26 00:38:06;;;;;;;2.58;2.20;;;;;;;17.57;80.74;96033.22;4878032;29;20049;-76
2022/06/26 00:40:34;;;;;;;4.20;2.00;;;;;;;17.55;80.66;96039.13;4878624;29;20425;-77
2022/06/26 00:43:00;;;;;;;3.20;2.00;;;;;;;17.52;80.30;96036.28;4878388;29;20417;-76
2022/06/26 00:45:26;;;;;;;3.15;2.40;;;;;;;17.46;80.11;96047.63;4877779;29;20571;-77
2022/06/26 00:47:53;;;;;;;2.70;2.05;;;;;;;17.37;80.24;96054.53;4878216;29;20513;-77
2022/06/26 00:50:19;;;;;;;3.25;2.15;;;;;;;17.27;80.85;96052.41;4876956;29;20739;-76
2022/06/26 00:52:46;;;;;;;3.00;2.15;;;;;;;17.23;81.07;96060.63;4878397;29;20394;-78
2022/06/26 00:55:13;;;;;;;2.70;1.80;;;;;;;17.24;81.48;96058.66;4874537;29;20056;-78
2022/06/26 00:57:41;;;;;;;6.38;2.63;;;;;;;17.24;82.16;96050.41;4878243;29;20051;-77
2022/06/26 01:00:10;;;;;;;2.83;2.10;;;;;;;17.25;82.56;96052.78;4877758;29;20052;-79
2022/06/26 01:02:36;;;;;;;2.33;2.10;;;;;;;17.25;82.57;96052.78;4878202;29;20056;-76
2022/06/26 01:05:03;;;;;;;3.22;2.30;;;;;;;17.27;82.86;96049.66;4877763;29;20049;-76
2022/06/26 01:07:31;;;;;;;3.40;2.17;;;;;;;17.28;82.88;96049.31;4877756;29;20531;-77
2022/06/26 01:09:58;;;;;;;2.45;1.90;;;;;;;17.23;82.69;96060.63;4877479;29;20079;-77
2022/06/26 01:12:25;;;;;;;3.08;2.30;;;;;;;17.21;82.96;96051.94;4877061;29;20145;-77
2022/06/26 01:14:53;;;;;;;2.72;2.30;;;;;;;17.18;83.19;96047.97;4877805;29;20056;-76
2022/06/26 01:17:19;;;;;;;3.13;2.22;;;;;;;17.16;83.40;96052.25;4877060;29;20657;-77
2022/06/26 01:19:47;;;;;;;3.17;2.42;;;;;;;17.15;83.61;96056.94;4877678;29;20539;-75
2022/06/26 01:22:13;;;;;;;3.13;2.15;;;;;;;17.14;83.91;96057.31;4876916;29;20413;-76
2022/06/26 01:24:41;;;;;;;2.80;2.08;;;;;;;17.12;83.86;96057.69;4876685;29;20057;-78
2022/06/26 01:27:09;;;;;;;4.55;2.30;;;;;;;17.09;84.18;96052.13;4877118;29;20712;-77
2022/06/26 01:29:35;;;;;;;2.90;2.38;;;;;;;17.08;84.20;96047.78;4877699;29;20053;-76
2022/06/26 01:32:02;;;;;;;3.22;2.20;;;;;;;17.07;83.97;96046.19;4877086;29;20041;-76
2022/06/26 01:34:29;;;;;;;2.85;1.98;;;;;;;17.03;83.44;96051.66;4877443;29;20537;-77
2022/06/26 01:36:56;;;;;;;3.28;2.00;;;;;;;17.00;83.05;96046.06;4877647;29;20049;-76
2022/06/26 01:39:25;;;;;;;2.90;2.28;;;;;;;16.99;83.49;96050.00;4877018;29;20048;-76
2022/06/26 01:41:52;;;;;;;4.97;1.98;;;;;;;17.02;83.84;96060.25;4877604;29;20410;-76
2022/06/26 01:44:19;;;;;;;3.75;2.17;;;;;;;16.98;84.11;96062.16;4876851;29;20056;-77
2022/06/26 01:46:46;;;;;;;3.25;2.00;;;;;;;16.94;84.35;96065.63;4877324;29;20080;-77
2022/06/26 01:49:12;;;;;;;3.58;2.08;;;;;;;16.94;84.67;96049.13;4876662;29;20052;-76
2022/06/26 01:51:39;;;;;;;3.58;2.30;;;;;;;16.91;83.81;96060.88;4876998;29;20053;-77
2022/06/26 01:54:05;;;;;;;3.08;2.10;;;;;;;16.88;83.42;96056.09;4873911;29;20045;-77
2022/06/26 01:56:32;;;;;;;3.05;1.98;;;;;;;16.85;83.50;96056.81;4858380;29;20413;-76
2022/06/26 01:58:59;;;;;;;2.65;1.92;;;;;;;16.84;83.60;96057.97;4858559;29;20064;-76
2022/06/26 02:01:26;;;;;;;6.30;2.70;;;;;;;16.83;84.25;96056.41;4858082;29;20045;-77
2022/06/26 02:03:52;;;;;;;7.25;2.20;;;;;;;16.87;84.86;96050.97;4858238;29;20054;-78
2022/06/26 02:06:19;;;;;;;4.55;2.38;;;;;;;16.89;85.92;96057.69;4849825;29;20414;-76
2022/06/26 02:08:45;;;;;;;2.70;2.10;;;;;;;16.92;85.32;96056.16;4858386;29;20097;-76
2022/06/26 02:13:56;;;;;;;3.15;2.45;;;;;;;16.93;83.75;96060.50;4858419;29;20060;-77
2022/06/26 02:16:26;;;;;;;3.83;2.40;;;;;;;16.92;83.58;96073.47;4857656;29;20056;-76
2022/06/26 02:18:55;;;;;;;3.92;2.42;;;;;;;16.89;83.42;96074.19;4858187;29;20060;-77
2022/06/26 02:21:23;;;;;;;3.20;2.20;;;;;;;16.85;83.95;96070.56;4857567;29;20053;-76
2022/06/26 02:23:51;;;;;;;4.68;2.40;;;;;;;16.86;84.23;96074.09;4859100;29;20165;-76
2022/06/26 02:26:19;;;;;;;3.25;2.40;;;;;;;16.90;84.92;96066.72;4876353;29;20434;-78
2022/06/26 02:28:47;;;;;;;4.53;2.63;;;;;;;16.87;84.62;96073.75;4876565;29;20508;-77
2022/06/26 02:31:13;;;;;;;3.38;2.10;;;;;;;16.82;84.48;96068.56;4876066;29;20064;-76
2022/06/26 02:33:41;;;;;;;6.10;2.83;;;;;;;16.80;84.85;96070.88;4876582;29;20071;-77
2022/06/26 02:36:09;;;;;;;4.50;2.47;;;;;;;16.84;85.32;96071.72;4876128;29;20442;-77
2022/06/26 02:38:37;;;;;;;4.85;2.63;;;;;;;16.89;85.22;96073.38;4876677;29;20049;-76
2022/06/26 02:41:04;;;;;;;3.15;2.40;;;;;;;16.84;84.61;96077.22;4876109;29;20109;-76
2022/06/26 02:43:31;;;;;;;4.55;2.80;;;;;;;16.80;84.55;96087.38;4876086;29;20621;-76
2022/06/26 02:45:57;;;;;;;3.25;2.80;;;;;;;16.76;84.90;96089.28;4876490;29;20053;-76
2022/06/26 02:48:24;;;;;;;3.78;2.80;;;;;;;16.64;85.73;96100.38;4876100;29;20064;-76
2022/06/26 02:50:52;;;;;;;3.95;2.90;;;;;;;16.63;86.07;96099.59;4876220;29;20553;-77
2022/06/26 02:53:19;;;;;;;5.38;2.75;;;;;;;16.68;86.19;96101.25;4875985;29;20128;-77
2022/06/26 02:55:45;;;;;;;3.35;2.25;;;;;;;16.77;86.71;96104.59;4875182;29;20045;-77
2022/06/26 02:58:12;;;;;;;5.28;2.60;;;;;;;16.80;86.51;96106.63;4875625;29;20049;-77
2022/06/26 03:00:39;;;;;;;5.00;2.70;;;;;;;16.81;86.02;96110.97;4876179;29;20056;-77
2022/06/26 03:03:05;;;;;;;4.47;3.10;;;;;;;16.82;86.20;96118.06;4875491;29;20048;-75
2022/06/26 03:05:32;;;;;;;5.35;2.80;;;;;;;16.81;86.33;96116.47;4876437;29;20057;-76
2022/06/26 03:08:00;;;;;;;3.17;2.63;;;;;;;16.80;86.67;96114.84;4876320;29;20056;-77
2022/06/26 03:10:27;;;;;;;3.33;3.00;;;;;;;16.86;86.80;96118.94;4876103;29;20049;-76
2022/06/26 03:12:53;;;;;;;5.78;3.80;;;;;;;16.88;86.41;96122.09;4878445;29;20060;-76
2022/06/26 03:15:20;;;;;;;4.30;3.47;;;;;;;16.91;86.45;96120.56;4879348;29;20620;-77
2022/06/26 03:17:47;;;;;;;4.70;3.90;;;;;;;16.96;86.96;96128.50;4879878;29;20056;-77
2022/06/26 03:20:15;;;;;;;4.90;4.22;;;;;;;16.98;86.86;96126.22;4879465;29;20409;-76
2022/06/26 03:22:42;;;;;;;4.40;3.90;;;;;;;16.93;86.50;96124.56;4879893;29;20668;-76
2022/06/26 03:25:10;;;;;;;5.13;3.50;;;;;;;16.93;86.45;96130.06;4878180;29;20124;-77
2022/06/26 03:27:37;;;;;;;6.28;3.97;;;;;;;16.93;86.28;96135.56;4879912;29;20468;-76
2022/06/26 03:30:04;;;;;;;4.15;3.63;;;;;;;16.94;86.41;96137.13;4879194;29;20431;-76
2022/06/26 03:32:31;;;;;;;3.75;3.35;;;;;;;17.03;86.94;96127.88;4879703;29;20053;-77
2022/06/26 03:34:57;;;;;;;5.45;4.05;;;;;;;17.05;87.11;96136.53;4879786;29;20067;-76
2022/06/26 03:37:24;;;;;;;5.35;4.35;;;;;;;17.08;87.28;96149.59;4879150;29;20056;-76
2022/06/26 03:39:50;;;;;;;8.25;4.90;;;;;;;17.05;86.66;96148.34;4879583;29;20049;-77
2022/06/26 03:42:18;;;;;;;6.80;4.18;;;;;;;17.06;86.18;96155.44;4878886;29;20049;-77
2022/06/26 03:44:45;;;;;;;7.88;4.63;;;;;;;17.06;85.76;96160.13;4878414;29;20052;-77
2022/06/26 03:47:11;;;;;;;7.45;4.82;;;;;;;16.99;86.42;96160.00;4877208;29;20051;-77
2022/06/26 03:49:38;;;;;;;7.15;5.47;;;;;;;16.84;86.64;96176.22;4879494;29;20101;-76
2022/06/26 03:52:05;;;;;;;6.60;5.05;;;;;;;16.79;86.54;96171.03;4879114;29;20045;-76
2022/06/26 03:54:34;;;;;;;7.28;4.65;;;;;;;16.76;86.42;96169.00;4878623;29;20064;-76
2022/06/26 03:57:00;;;;;;;6.65;4.53;;;;;;;16.80;86.10;96164.34;4879218;29;20075;-76
2022/06/26 03:59:28;;;;;;;6.90;4.40;;;;;;;16.85;86.25;96161.31;4878702;29;20040;-77
2022/06/26 04:01:55;;;;;;;5.20;4.25;;;;;;;16.92;86.39;96158.72;4879278;29;20079;-78
2022/06/26 04:04:21;;;;;;;5.22;4.40;;;;;;;16.98;86.25;96147.44;4878149;29;20061;-77
2022/06/26 04:06:48;;;;;;;7.38;4.70;;;;;;;17.04;86.49;96143.22;4879141;29;20052;-76
2022/06/26 04:09:14;;;;;;;6.00;5.07;;;;;;;17.09;87.14;96138.19;4878578;29;20061;-76
2022/06/26 04:11:41;;;;;;;4.90;4.40;;;;;;;17.12;86.88;96147.66;4879036;29;20056;-77
2022/06/26 04:14:07;;;;;;;5.25;4.18;;;;;;;17.16;86.73;96149.31;4878645;29;20048;-76
2022/06/26 04:16:35;;;;;;;4.53;3.83;;;;;;;17.20;86.54;96152.16;4879107;29;20049;-80
2022/06/26 04:19:01;;;;;;;4.78;3.60;;;;;;;17.28;86.67;96153.88;4878449;29;20119;-76
2022/06/26 04:21:28;;;;;;;8.15;3.72;;;;;;;17.34;86.31;96165.38;4878978;29;20478;-76
2022/06/26 04:23:54;;;;;;;6.10;4.18;;;;;;;17.33;85.67;96170.09;4876407;29;20060;-76
2022/06/26 04:26:21;;;;;;;5.25;3.80;;;;;;;17.33;85.78;96170.09;4878260;29;20057;-76
2022/06/26 04:28:47;;;;;;;7.28;4.70;;;;;;;17.36;85.95;96172.09;4878846;29;20049;-76
2022/06/26 04:31:14;;;;;;;6.03;4.05;;;;;;;17.39;85.62;96165.88;4878257;29;20057;-77
2022/06/26 04:33:43;;;;;;;4.38;3.85;;;;;;;17.45;85.63;96167.16;4878785;29;20053;-81
2022/06/26 04:36:11;;;;;;;4.57;3.70;;;;;;;17.52;85.64;96162.94;4877968;29;20465;-76
2022/06/26 04:38:37;;;;;;;7.38;4.10;;;;;;;17.62;85.98;96165.06;4878341;29;20045;-76
2022/06/26 04:41:31;;;;;;;5.13;3.78;;;;;;;17.65;85.21;96170.66;4877792;29;20053;-77
2022/06/26 04:43:51;;;;;;;5.93;4.13;;;;;;;17.71;84.91;96162.88;4878011;29;20120;-77
2022/06/26 04:46:17;;;;;;;6.97;4.72;;;;;;;17.75;84.76;96163.75;4877825;29;20052;-76
2022/06/26 04:48:45;;;;;;;8.27;3.80;;;;;;;17.86;84.67;96172.97;4878118;29;20493;-77
2022/06/26 04:51:11;;;;;;;4.05;3.60;;;;;;;17.89;83.56;96174.19;4877653;29;20100;-77
2022/06/26 04:53:38;;;;;;;6.20;4.10;;;;;;;17.78;81.96;96178.72;4878065;29;20417;-77
2022/06/26 04:56:05;;;;;;;4.93;3.70;;;;;;;17.80;81.48;96177.22;4875899;29;20583;-77
2022/06/26 04:58:32;;;;;;;4.68;4.13;;;;;;;17.74;81.38;96184.97;4878226;29;20057;-76
2022/06/26 05:00:58;;;;;;;6.38;3.95;;;;;;;17.81;81.59;96184.31;4878159;29;20601;-77
2022/06/26 05:03:24;;;;;;;5.93;5.03;;;;;;;17.72;81.99;96192.00;4877466;29;20049;-76
2022/06/26 05:05:52;;;;;;;6.70;4.47;;;;;;;17.66;82.34;96187.97;4877933;29;20056;-76
2022/06/26 05:08:19;;;;;;;7.25;4.57;;;;;;;17.69;83.02;96190.75;4877540;29;20049;-77
2022/06/26 05:10:45;;;;;;;9.27;4.80;;;;;;;17.82;83.15;96190.63;4877685;29;20045;-77
2022/06/26 05:13:12;;;;;;;7.65;4.40;;;;;;;17.84;82.92;96199.28;4877294;29;20048;-76
2022/06/26 05:15:38;;;;;;;4.95;3.85;;;;;;;17.84;82.93;96200.09;4877798;29;20064;-76
2022/06/26 05:18:05;;;;;;;9.05;4.80;;;;;;;17.80;83.26;96202.00;4877197;29;20738;-76
2022/06/26 05:20:31;;;;;;;9.63;4.50;;;;;;;17.76;83.62;96198.38;4877681;29;20065;-77
2022/06/26 05:22:59;;;;;;;3.78;3.38;;;;;;;17.81;83.23;96189.81;4877637;29;20056;-77
2022/06/26 05:25:26;;;;;;;8.60;3.78;;;;;;;17.89;82.62;96191.50;4876709;29;20497;-77
2022/06/26 05:27:52;;;;;;;5.80;3.30;;;;;;;18.04;82.92;96181.50;4877474;29;20477;-76
2022/06/26 05:30:19;;;;;;;6.60;3.50;;;;;;;18.21;82.81;96185.69;4876874;29;20516;-76
2022/06/26 05:32:46;;;;;;;5.63;3.17;;;;;;;18.29;82.17;96187.41;4877910;29;20084;-79
2022/06/26 05:35:12;;;;;;;7.28;3.13;;;;;;;18.36;81.86;96187.50;4876854;29;20057;-77
2022/06/26 05:37:39;;;;;;;8.65;3.63;;;;;;;18.26;81.45;96193.63;4877290;29;20037;-76
2022/06/26 05:40:08;;;;;;;4.28;2.80;;;;;;;18.32;81.42;96186.63;4876759;29;20049;-77
2022/06/26 05:42:35;;;;;;;4.72;3.00;;;;;;;18.43;80.84;96184.06;4877204;29;20049;-77
2022/06/26 05:45:01;;;;;;;5.70;2.95;;;;;;;18.60;81.58;96188.22;4876690;29;20048;-76
2022/06/26 05:47:27;;;;;;;3.83;2.50;;;;;;;18.71;82.26;96192.72;4877420;29;20049;-76
2022/06/26 05:49:54;;;;;;;7.28;3.30;;;;;;;18.61;82.28;96192.56;4877219;29;20049;-77
2022/06/26 05:52:21;;;;;;;4.20;2.65;;;;;;;18.78;82.09;96192.00;4876599;29;20086;-77
2022/06/26 05:54:48;;;;;;;4.13;2.53;;;;;;;18.87;81.91;96194.50;4876515;29;20076;-77
2022/06/26 05:57:16;;;;;;;5.90;2.78;;;;;;;18.96;82.73;96198.56;4876568;29;20069;-76
2022/06/26 05:59:42;;;;;;;6.95;3.13;;;;;;;18.96;82.89;96197.78;4877206;29;20045;-76
2022/06/26 06:02:09;;;;;;;6.93;3.17;;;;;;;19.01;82.57;96198.22;4876743;29;20048;-77
2022/06/26 06:04:35;;;;;;;5.80;3.30;;;;;;;18.94;81.85;96195.38;4877082;29;20045;-77
2022/06/26 06:07:02;;;;;;;4.55;2.80;;;;;;;18.88;82.82;96202.38;4876434;29;20052;-76
2022/06/26 06:09:28;;;;;;;5.30;3.00;;;;;;;18.86;82.51;96199.22;4876879;29;20048;-77
2022/06/26 06:11:55;;;;;;;4.32;3.00;;;;;;;18.91;82.47;96196.13;4876558;29;20057;-76
2022/06/26 06:14:22;;;;;;;3.67;2.47;;;;;;;19.02;82.37;96196.25;4876411;29;20057;-77
2022/06/26 06:16:49;;;;;;;4.97;3.10;;;;;;;19.14;82.02;96197.97;4876856;29;20060;-77
2022/06/26 06:19:15;;;;;;;4.45;2.38;;;;;;;19.22;81.07;96191.38;4876067;29;20501;-77
2022/06/26 06:21:42;;;;;;;5.30;3.67;;;;;;;19.06;81.00;96188.81;4876729;29;20049;-78
2022/06/26 06:24:09;;;;;;;6.47;4.75;;;;;;;19.06;81.69;96190.78;4875304;29;20061;-78
2022/06/26 06:26:35;;;;;;;6.57;3.80;;;;;;;19.32;81.18;96192.66;4876756;29;20067;-77
2022/06/26 06:29:02;;;;;;;4.82;3.08;;;;;;;19.40;81.27;96189.56;4876251;29;20409;-77
2022/06/26 06:31:30;;;;;;;4.40;2.90;;;;;;;19.44;81.27;96195.94;4876963;29;20076;-76
2022/06/26 06:33:56;;;;;;;4.00;2.95;;;;;;;19.51;80.87;96189.66;4876887;29;20085;-77
2022/06/26 06:36:23;;;;;;;4.28;2.38;;;;;;;19.60;79.55;96203.22;4881890;29;20402;-77
2022/06/26 06:38:49;;;;;;;5.80;2.92;;;;;;;19.65;78.00;96202.88;4870322;29;20041;-76
2022/06/26 06:41:16;;;;;;;4.22;2.75;;;;;;;19.58;78.98;96205.53;4872048;29;20053;-79
2022/06/26 06:43:42;;;;;;;3.97;2.38;;;;;;;19.69;78.21;96211.97;4871824;29;20076;-78
2022/06/26 06:46:08;;;;;;;4.13;2.92;;;;;;;19.83;79.42;96206.56;4871483;29;20057;-76
2022/06/26 06:48:36;;;;;;;4.15;2.30;;;;;;;19.96;78.87;96210.63;4871702;29;20049;-77
2022/06/26 06:51:03;;;;;;;5.38;2.85;;;;;;;20.05;78.90;96215.84;4874468;29;20049;-78
2022/06/26 06:53:29;;;;;;;3.33;2.40;;;;;;;20.02;77.38;96214.63;4875994;29;20057;-77
2022/06/26 06:55:56;;;;;;;5.40;2.30;;;;;;;20.12;77.81;96218.66;4875791;29;20050;-78
2022/06/26 06:58:22;;;;;;;3.20;2.30;;;;;;;20.16;76.15;96219.50;4875489;29;20057;-77
2022/06/26 07:00:49;;;;;;;6.63;3.00;;;;;;;20.06;75.94;96221.00;4875359;29;20045;-78
2022/06/26 07:03:15;;;;;;;3.75;2.50;;;;;;;20.05;76.36;96222.16;4875579;29;20056;-77
2022/06/26 07:05:43;;;;;;;6.78;2.50;;;;;;;20.08;77.92;96223.34;4875912;29;20048;-78
2022/06/26 07:08:09;;;;;;;3.78;2.20;;;;;;;20.33;77.73;96223.56;4875501;29;20057;-77
2022/06/26 07:10:36;;;;;;;3.33;2.50;;;;;;;20.46;77.54;96222.06;4876035;29;20045;-77
2022/06/26 07:13:02;;;;;;;3.45;2.30;;;;;;;20.51;72.23;96223.69;4875580;29;20049;-78
2022/06/26 07:15:29;;;;;;;4.45;2.40;;;;;;;20.59;71.85;96219.81;4875704;29;20056;-77
2022/06/26 07:17:55;;;;;;;3.35;2.10;;;;;;;20.67;70.86;96220.63;4876166;29;20061;-78
2022/06/26 07:20:22;;;;;;;4.35;2.30;;;;;;;20.55;70.54;96213.44;4875273;29;20053;-78
2022/06/26 07:22:50;;;;;;;3.30;2.40;;;;;;;20.64;71.33;96215.88;4875788;29;20163;-78
2022/06/26 07:25:16;;;;;;;3.63;2.50;;;;;;;20.59;70.85;96214.25;4875534;29;20076;-78
2022/06/26 07:27:44;;;;;;;4.22;2.50;;;;;;;20.66;70.75;96213.50;4876060;29;20053;-78
2022/06/26 07:30:11;;;;;;;4.53;2.28;;;;;;;20.86;69.25;96212.03;4875323;29;20045;-78
2022/06/26 07:32:38;;;;;;;4.03;2.05;;;;;;;20.96;72.88;96219.59;4875919;29;20049;-78
2022/06/26 07:35:05;;;;;;;3.75;2.78;;;;;;;20.88;72.89;96211.63;4875344;29;20053;-77
2022/06/26 07:37:32;;;;;;;3.88;2.15;;;;;;;21.04;73.09;96210.16;4875774;29;20049;-78
2022/06/26 07:40:00;;;;;;;5.18;2.20;;;;;;;21.11;73.45;96207.41;4875680;29;20524;-77
2022/06/26 07:42:26;;;;;;;3.22;2.38;;;;;;;20.98;71.85;96213.66;4875521;29;20041;-78
2022/06/26 07:44:53;;;;;;;3.50;2.20;;;;;;;21.13;72.81;96208.97;4876076;29;20045;-78
2022/06/26 07:47:19;;;;;;;2.60;2.10;;;;;;;21.32;72.05;96208.69;4875440;29;20137;-77
2022/06/26 07:49:46;;;;;;;3.38;2.30;;;;;;;21.40;72.48;96212.25;4875996;29;20064;-78
2022/06/26 07:52:12;;;;;;;2.85;1.95;;;;;;;21.46;71.86;96200.41;4875275;29;20128;-77
2022/06/26 07:54:39;;;;;;;3.28;2.20;;;;;;;21.48;70.66;96198.03;4875488;29;20041;-78
2022/06/26 07:57:07;;;;;;;8.65;1.90;;;;;;;21.61;70.23;96190.94;4875167;29;20045;-78
2022/06/26 07:59:34;;;;;;;2.92;1.70;;;;;;;21.80;69.02;96189.75;4878500;29;20037;-76
2022/06/26 08:02:03;;;;;;;5.55;2.15;;;;;;;21.86;66.22;96190.16;4879406;29;20412;-82
2022/06/26 08:04:29;;;;;;;2.15;1.90;;;;;;;21.94;68.17;96200.06;4879313;29;20045;-78
2022/06/26 08:06:56;;;;;;;2.20;1.90;;;;;;;22.02;66.07;96193.31;4879468;29;20072;-80
2022/06/26 08:09:22;;;;;;;5.07;2.10;;;;;;;22.12;64.74;96192.56;4867816;29;20050;-79
2022/06/26 08:11:49;;;;;;;2.60;1.70;;;;;;;22.34;65.86;96196.13;4871880;29;20046;-80
2022/06/26 08:14:16;;;;;;;2.38;1.55;;;;;;;22.51;64.49;96200.06;4860396;29;20061;-78
2022/06/26 08:16:43;;;;;;;2.38;1.65;;;;;;;22.89;62.69;96187.28;4860922;29;20054;-79
2022/06/26 08:19:09;;;;;;;6.43;2.20;;;;;;;23.63;62.18;96182.56;4862612;29;20049;-82
2022/06/26 08:24:20;;;;;;;1.52;1.40;;;;;;;24.58;58.17;96196.09;4879684;29;20056;-79
2022/06/26 08:26:47;;;;;;;3.72;1.60;;;;;;;24.77;60.07;96188.34;4879783;29;20056;-80
2022/06/26 08:29:13;;;;;;;2.97;1.90;;;;;;;24.72;57.11;96182.03;4878360;29;20056;-80
2022/06/26 08:31:41;;;;;;;3.55;1.70;;;;;;;24.80;57.14;96181.97;4879021;29;20057;-79
2022/06/26 08:34:07;;;;;;;2.92;1.55;;;;;;;24.61;58.37;96189.69;4878628;29;20587;-80
2022/06/26 08:36:34;;;;;;;3.28;1.80;;;;;;;24.76;58.60;96178.41;4879057;29;20044;-78
2022/06/26 08:39:00;;;;;;;3.45;2.30;;;;;;;24.83;63.93;96183.91;4879391;29;20053;-81
2022/06/26 08:41:29;;;;;;;3.22;2.00;;;;;;;24.96;59.50;96182.16;4879843;29;20044;-81
2022/06/26 08:43:59;;;;;;;1.90;1.58;;;;;;;24.91;57.17;96179.84;4879502;29;20049;-80
2022/06/26 08:46:27;;;;;;;2.28;1.70;;;;;;;24.93;56.07;96188.56;4879040;29;20072;-80
2022/06/26 08:48:58;;;;;;;3.15;1.75;;;;;;;24.95;55.38;96183.34;4878940;29;20078;-80
2022/06/26 08:51:24;;;;;;;3.05;1.73;;;;;;;25.07;58.60;96194.00;4879036;29;20057;-80
2022/06/26 08:53:52;;;;;;;2.72;1.52;;;;;;;25.39;61.61;96184.44;4880169;29;20064;-78
2022/06/26 08:56:19;;;;;;;2.20;1.40;;;;;;;25.58;57.32;96185.75;4860881;29;20046;-80
2022/06/26 08:58:45;;;;;;;1.77;1.38;;;;;;;25.52;54.99;96185.41;4861644;29;20524;-79
2022/06/26 09:01:12;;;;;;;2.13;1.50;;;;;;;25.41;55.01;96182.78;4860042;29;20049;-79
2022/06/26 09:03:38;;;;;;;2.03;1.33;;;;;;;25.44;56.41;96186.75;4860365;29;20053;-79
2022/06/26 09:06:06;;;;;;;2.20;1.45;;;;;;;25.72;56.65;96183.53;4860460;29;20053;-79
2022/06/26 09:08:43;;;;;;;1.70;1.08;;;;;;;25.76;53.44;96178.72;4860698;29;20417;-79
2022/06/26 09:11:09;;;;;;;1.30;1.00;;;;;;;25.83;53.77;96168.66;4859668;29;20056;-78
2022/06/26 09:13:37;;;;;;;1.40;1.00;;;;;;;26.05;55.64;96177.47;4860197;29;20054;-80
2022/06/26 09:16:05;;;;;;;2.13;1.10;;;;;;;26.22;55.96;96166.03;4860153;29;20065;-78
2022/06/26 09:18:34;;;;;;;1.45;1.00;;;;;;;26.27;53.38;96167.56;4860004;29;20060;-79
2022/06/26 09:21:01;;;;;;;2.70;1.08;;;;;;;26.31;52.44;96156.31;4859992;29;20062;-78
2022/06/26 09:23:28;;;;;;;1.35;1.15;;;;;;;26.35;54.63;96148.66;4859694;29;20446;-79
2022/06/26 09:25:55;;;;;;;4.80;4.28;;;;;;;26.43;53.92;96164.91;4875385;29;20425;-80
2022/06/26 09:28:22;;;;;;;1.83;1.38;;;;;;;26.43;56.57;96150.94;4879091;29;20429;-80
2022/06/26 09:30:52;;;;;;;4.65;1.92;;;;;;;26.39;54.76;96152.97;4876577;29;20053;-79
2022/06/26 09:33:20;;;;;;;1.98;1.08;;;;;;;26.44;51.70;96148.94;4851515;29;20053;-79
2022/06/26 09:35:47;;;;;;;1.92;1.20;;;;;;;26.51;54.65;96154.38;4860031;29;20446;-79
2022/06/26 09:38:18;;;;;;;1.90;0.90;;;;;;;26.29;46.66;96148.38;4859429;29;20049;-81
2022/06/26 09:40:58;;;;;;;1.80;1.00;;;;;;;26.64;48.21;96146.94;4860742;29;20125;-79
2022/06/26 09:43:30;;;;;;;1.50;0.98;;;;;;;26.73;50.55;96149.97;4858740;29;20053;-79
2022/06/26 09:45:59;;;;;;;1.23;1.00;;;;;;;26.72;51.01;96165.13;4862141;29;20049;-80
2022/06/26 09:48:28;;;;;;;2.78;1.00;;;;;;;26.75;54.23;96150.31;4860746;29;20109;-81
2022/06/26 09:50:56;;;;;;;1.20;0.80;;;;;;;26.87;49.50;96156.47;4861207;29;20111;-79
2022/06/26 09:53:27;;;;;;;1.10;0.90;;;;;;;26.95;51.72;96155.91;4860617;29;20128;-79
2022/06/26 09:55:56;;;;;;;1.45;0.82;;;;;;;26.70;48.19;96159.19;4875876;29;20056;-79
2022/06/26 09:58:26;;;;;;;1.67;0.95;;;;;;;26.91;49.71;96160.00;4878143;29;20056;-79
2022/06/26 10:06:28;;;;;;;1.30;0.90;;;;;;;27.08;48.90;96150.47;4880895;29;20556;-79
2022/06/26 10:08:56;;;;;;;0.70;0.70;;;;;;;27.15;48.70;96155.16;4879134;29;20057;-80
2022/06/26 10:11:27;;;;;;;0.88;0.65;;;;;;;27.18;47.60;96152.25;4876889;29;20056;-79
2022/06/26 10:13:57;;;;;;;0.80;0.70;;;;;;;27.16;50.39;96157.50;4877218;29;20056;-79
2022/06/26 10:16:56;;;;;;;1.13;0.90;;;;;;;27.28;49.97;96151.25;4876398;29;20053;-79
2022/06/26 10:19:29;;;;;;;0.88;0.75;;;;;;;27.38;48.60;96141.06;4876503;29;20072;-78
2022/06/26 10:21:56;;;;;;;0.80;0.80;;;;;;;27.43;47.43;96145.34;4876265;29;20052;-80
2022/06/26 10:24:23;;;;;;;1.00;0.80;;;;;;;27.38;44.21;96143.06;4876334;29;20053;-80
2022/06/26 10:26:56;;;;;;;1.17;0.73;;;;;;;27.44;45.50;96147.69;4877041;29;20579;-80
2022/06/26 10:29:33;;;;;;;1.55;0.80;;;;;;;27.52;45.91;96148.34;4876042;29;20136;-79
2022/06/26 10:32:00;;;;;;;1.38;1.00;;;;;;;27.37;47.84;96147.88;4876719;29;20420;-79
2022/06/26 10:34:27;;;;;;;2.50;0.80;;;;;;;27.31;43.83;96149.59;4876972;29;20041;-81
2022/06/26 10:36:59;;;;;;;1.40;0.65;;;;;;;27.42;44.36;96143.78;4877410;29;20052;-79
2022/06/26 10:39:46;;;;;;;1.65;0.73;;;;;;;27.47;48.64;96140.47;4876102;29;20544;-79
2022/06/26 10:45:09;;;;;;;0.60;0.60;;;;;;;27.35;45.32;96135.53;4876193;29;20172;-81
2022/06/26 10:47:42;;;;;;;0.98;0.65;;;;;;;27.36;42.97;96139.94;4876458;29;20501;-80
2022/06/26 10:50:26;;;;;;;1.15;0.82;;;;;;;27.39;45.60;96133.44;4876202;29;20057;-80
2022/06/26 10:52:53;;;;;;;1.40;0.60;;;;;;;27.42;43.91;96130.59;4876550;29;20060;-80
2022/06/26 10:55:20;;;;;;;2.47;0.80;;;;;;;27.53;46.53;96124.75;4875384;29;20053;-80
2022/06/26 10:57:57;;;;;;;2.25;0.80;;;;;;;27.63;43.36;96120.91;4876180;29;20079;-79
2022/06/26 11:00:26;;;;;;;2.15;0.82;;;;;;;27.62;45.46;96124.94;4875573;29;20041;-77
2022/06/26 11:02:52;;;;;;;0.80;0.70;;;;;;;27.52;45.08;96121.16;4879508;29;20045;-79
2022/06/26 11:05:20;;;;;;;2.00;0.90;;;;;;;27.54;45.42;96129.91;4877427;29;20045;-78
2022/06/26 11:07:49;;;;;;;3.78;1.20;;;;;;;27.47;44.00;96118.09;4877568;29;20059;-78
2022/06/26 11:10:17;;;;;;;3.10;1.30;;;;;;;27.63;47.10;96120.91;4877909;29;20049;-78
2022/06/26 11:12:44;;;;;;;2.78;1.10;;;;;;;27.45;43.88;96131.72;4876717;29;20048;-77
2022/06/26 11:15:23;;;;;;;2.97;0.70;;;;;;;27.47;42.46;96129.28;4877627;29;20132;-78
2022/06/26 11:17:58;;;;;;;1.45;0.70;;;;;;;27.51;44.73;96124.38;4878842;29;20537;-79
2022/06/26 11:23:16;;;;;;;1.33;0.80;;;;;;;27.64;44.28;96128.06;4866043;29;20056;-78
2022/06/26 11:25:43;;;;;;;1.38;0.70;;;;;;;27.61;41.75;96117.75;4875427;29;20053;-80
2022/06/26 11:28:11;;;;;;;0.60;0.60;;;;;;;27.39;41.59;96122.25;4875132;29;20091;-81
2022/06/26 11:30:40;;;;;;;1.73;0.85;;;;;;;27.34;44.25;96122.78;4875803;29;20053;-80
2022/06/26 11:33:08;;;;;;;1.88;0.77;;;;;;;27.30;45.05;96120.06;4876771;29;20464;-80
2022/06/26 11:35:35;;;;;;;1.60;1.38;;;;;;;27.48;47.61;96114.06;4880000;29;20413;-79
2022/06/26 11:38:10;;;;;;;3.20;1.55;;;;;;;27.39;45.15;96105.50;4879067;29;20059;-79
2022/06/26 11:40:36;;;;;;;1.48;0.80;;;;;;;27.36;43.54;96106.38;4879446;29;20045;-78
2022/06/26 11:43:03;;;;;;;2.65;0.90;;;;;;;27.44;43.62;96118.97;4879414;29;20064;-78
2022/06/26 11:45:31;;;;;;;2.15;0.70;;;;;;;27.48;44.76;96114.06;4879672;29;20520;-78
2022/06/26 11:48:00;;;;;;;0.50;0.50;;;;;;;27.54;43.47;96123.50;4880003;29;20048;-78
2022/06/26 11:50:29;;;;;;;0.57;0.50;;;;;;;27.42;40.88;96121.41;4879433;29;20073;-80
2022/06/26 11:52:58;;;;;;;0.60;0.60;;;;;;;27.44;46.67;96108.56;4878408;29;20416;-80